createdAt,value
2023-02-12T00:01:58.311Z,100.00
2023-02-12T00:04:19.752Z,100.00
2023-02-12T00:06:41.185Z,100.00
2023-02-12T00:09:02.658Z,100.00
2023-02-12T00:11:26.848Z,100.00
2023-02-12T00:13:48.641Z,100.00
2023-02-12T00:16:13.908Z,100.00
2023-02-12T00:18:35.615Z,100.00
2023-02-12T00:20:59.268Z,100.00
2023-02-12T00:23:20.687Z,100.00
2023-02-12T00:25:42.687Z,99.79
2023-02-12T00:28:04.177Z,99.55
2023-02-12T00:30:25.898Z,99.81
2023-02-12T00:32:47.390Z,100.00
2023-02-12T00:35:08.858Z,99.97
2023-02-12T00:37:30.260Z,100.00
2023-02-12T00:39:51.685Z,99.68
2023-02-12T00:42:13.164Z,99.20
2023-02-12T00:44:34.608Z,98.85
2023-02-12T00:46:57.216Z,98.74
2023-02-12T00:49:20.363Z,98.49
2023-02-12T00:51:41.831Z,98.42
2023-02-12T00:54:03.382Z,98.53
2023-02-12T00:56:24.899Z,98.44
2023-02-12T00:58:46.346Z,98.13
2023-02-12T01:01:07.977Z,98.12
2023-02-12T01:03:29.517Z,97.95
2023-02-12T01:05:51.093Z,97.92
2023-02-12T01:08:14.099Z,97.75
2023-02-12T01:10:35.565Z,97.50
2023-02-12T01:12:57.208Z,97.56
2023-02-12T01:15:19.215Z,97.30
2023-02-12T01:17:40.769Z,97.11
2023-02-12T01:20:02.191Z,98.05
2023-02-12T01:22:23.714Z,97.90
2023-02-12T01:24:45.128Z,97.77
2023-02-12T01:27:06.596Z,97.57
2023-02-12T01:29:28.022Z,97.64
2023-02-12T01:31:49.665Z,97.31
2023-02-12T01:34:11.715Z,97.04
2023-02-12T01:36:33.430Z,96.75
2023-02-12T01:38:55.326Z,97.06
2023-02-12T01:41:23.519Z,97.64
2023-02-12T01:43:46.530Z,97.30
2023-02-12T01:46:10.059Z,97.48
2023-02-12T01:48:37.207Z,97.81
2023-02-12T01:51:00.836Z,98.05
2023-02-12T01:53:28.110Z,97.60
2023-02-12T01:55:52.109Z,97.71
2023-02-12T01:58:14.754Z,97.08
2023-02-12T02:00:36.283Z,97.22
2023-02-12T02:03:01.710Z,97.78
2023-02-12T02:05:33.423Z,97.28
2023-02-12T02:07:54.897Z,96.83
2023-02-12T02:10:16.763Z,96.75
2023-02-12T02:12:58.084Z,96.74
2023-02-12T02:15:19.598Z,96.51
2023-02-12T02:17:43.698Z,96.59
2023-02-12T02:20:22.906Z,96.21
2023-02-12T02:22:47.187Z,96.59
2023-02-12T02:25:27.617Z,97.03
2023-02-12T02:28:17.334Z,96.92
2023-02-12T02:30:45.393Z,96.94
2023-02-12T02:33:26.999Z,97.18
2023-02-12T02:36:26.180Z,97.02
2023-02-12T02:38:57.246Z,96.84
2023-02-12T02:41:41.696Z,96.65
2023-02-12T02:44:10.631Z,97.08
2023-02-12T02:46:44.877Z,96.89
2023-02-12T02:49:13.696Z,96.50
2023-02-12T02:51:41.185Z,96.58
2023-02-12T02:54:29.108Z,96.77
2023-02-12T02:56:56.492Z,96.57
2023-02-12T02:59:26.760Z,95.96
2023-02-12T03:01:54.659Z,96.33
2023-02-12T03:04:26.561Z,96.08
2023-02-12T03:06:58.419Z,95.82
2023-02-12T03:09:32.807Z,95.65
2023-02-12T03:12:00.460Z,95.77
2023-02-12T03:14:39.507Z,95.53
2023-02-12T03:17:06.878Z,95.36
2023-02-12T03:19:34.214Z,95.49
2023-02-12T03:22:04.080Z,95.39
2023-02-12T03:24:36.218Z,95.72
2023-02-12T03:27:09.134Z,95.43
2023-02-12T03:29:32.067Z,95.46
2023-02-12T03:31:56.244Z,95.66
2023-02-12T03:34:23.487Z,95.80
2023-02-12T03:36:52.619Z,95.82
2023-02-12T03:39:25.520Z,96.03
2023-02-12T03:41:53.625Z,96.51
2023-02-12T03:44:48.090Z,96.61
2023-02-12T03:47:21.971Z,96.89
2023-02-12T03:50:00.889Z,96.60
2023-02-12T03:52:22.776Z,96.63
2023-02-12T03:54:44.307Z,96.33
2023-02-12T03:57:10.813Z,96.09
2023-02-12T03:59:35.248Z,96.15
2023-02-12T04:01:59.459Z,96.48
2023-02-12T04:04:21.599Z,96.09
2023-02-12T04:06:43.630Z,95.62
2023-02-12T04:09:09.049Z,95.61
2023-02-12T04:11:57.120Z,97.16
2023-02-12T04:14:27.438Z,96.44
2023-02-12T04:16:57.829Z,96.33
2023-02-12T04:19:34.494Z,97.11
2023-02-12T04:22:19.548Z,96.98
2023-02-12T04:24:52.324Z,96.32
2023-02-12T04:27:23.993Z,97.21
2023-02-12T04:30:00.218Z,96.56
2023-02-12T04:32:47.337Z,97.04
2023-02-12T04:35:24.255Z,97.66
2023-02-12T04:37:51.984Z,96.82
2023-02-12T04:40:17.177Z,96.73
2023-02-12T04:42:43.948Z,97.43
2023-02-12T04:45:06.052Z,97.18
2023-02-12T04:47:27.501Z,96.76
2023-02-12T04:49:48.921Z,96.24
2023-02-12T04:52:10.487Z,96.45
2023-02-12T04:54:32.047Z,97.25
2023-02-12T04:56:53.504Z,96.49
2023-02-12T04:59:15.459Z,95.85
2023-02-12T05:01:38.425Z,97.62
2023-02-12T05:03:59.978Z,97.18
2023-02-12T05:06:21.407Z,97.63
2023-02-12T05:08:42.852Z,97.10
2023-02-12T05:11:06.914Z,96.88
2023-02-12T05:13:28.341Z,96.86
2023-02-12T05:15:49.811Z,96.36
2023-02-12T05:18:11.349Z,97.35
2023-02-12T05:20:32.790Z,96.72
2023-02-12T05:22:54.387Z,97.08
2023-02-12T05:25:15.813Z,97.03
2023-02-12T05:27:37.293Z,96.70
2023-02-12T05:29:58.712Z,96.01
2023-02-12T05:32:20.240Z,96.17
2023-02-12T05:34:44.828Z,96.04
2023-02-12T05:37:06.316Z,96.19
2023-02-12T05:39:28.035Z,96.09
2023-02-12T05:41:49.580Z,96.10
2023-02-12T05:44:15.238Z,96.81
2023-02-12T05:46:37.084Z,96.22
2023-02-12T05:48:58.610Z,96.04
2023-02-12T05:51:23.088Z,95.81
2023-02-12T05:53:44.538Z,95.99
2023-02-12T05:56:17.029Z,95.88
2023-02-12T05:58:39.290Z,96.17
2023-02-12T06:01:00.803Z,95.89
2023-02-12T06:03:22.261Z,96.11
2023-02-12T06:05:43.692Z,96.41
2023-02-12T06:08:05.137Z,96.14
2023-02-12T06:10:26.687Z,95.70
2023-02-12T06:12:48.121Z,96.90
2023-02-12T06:15:09.680Z,96.58
2023-02-12T06:17:31.107Z,96.36
2023-02-12T06:19:52.542Z,96.45
2023-02-12T06:22:14.005Z,96.13
2023-02-12T06:24:37.162Z,96.70
2023-02-12T06:26:58.617Z,96.54
2023-02-12T06:29:22.024Z,95.92
2023-02-12T06:31:43.722Z,95.71
2023-02-12T06:34:08.278Z,95.38
2023-02-12T06:36:30.381Z,96.56
2023-02-12T06:38:52.277Z,96.35
2023-02-12T06:41:14.208Z,96.99
2023-02-12T06:43:35.825Z,96.91
2023-02-12T06:46:01.314Z,96.16
2023-02-12T06:48:22.737Z,97.23
2023-02-12T06:50:44.179Z,96.73
2023-02-12T06:53:05.678Z,96.21
2023-02-12T06:55:27.208Z,96.57
2023-02-12T06:57:48.618Z,96.39
2023-02-12T07:00:10.849Z,96.93
2023-02-12T07:02:32.329Z,96.61
2023-02-12T07:04:53.842Z,96.40
2023-02-12T07:07:15.298Z,96.60
2023-02-12T07:09:36.735Z,97.87
2023-02-12T07:11:59.278Z,96.43
2023-02-12T07:14:20.711Z,96.08
2023-02-12T07:16:42.701Z,96.05
2023-02-12T07:19:04.199Z,96.02
2023-02-12T07:21:25.678Z,95.92
2023-02-12T07:23:52.525Z,96.06
2023-02-12T07:26:14.449Z,96.58
2023-02-12T07:28:35.955Z,96.42
2023-02-12T07:30:57.426Z,96.71
2023-02-12T07:33:19.337Z,96.57
2023-02-12T07:35:40.769Z,97.03
2023-02-12T07:38:02.189Z,96.24
2023-02-12T07:40:23.663Z,96.07
2023-02-12T07:42:45.095Z,96.36
2023-02-12T07:45:07.568Z,96.33
2023-02-12T07:47:29.016Z,96.41
2023-02-12T07:49:50.460Z,95.62
2023-02-12T07:52:13.504Z,95.70
2023-02-12T07:54:35.022Z,96.28
2023-02-12T07:56:56.460Z,95.43
2023-02-12T07:59:19.158Z,96.49
2023-02-12T08:01:43.970Z,95.49
2023-02-12T08:04:08.103Z,95.27
2023-02-12T08:06:32.505Z,94.88
2023-02-12T08:08:56.407Z,95.84
2023-02-12T08:11:18.798Z,94.98
2023-02-12T08:13:40.505Z,95.49
2023-02-12T08:16:03.938Z,95.03
2023-02-12T08:18:25.378Z,95.45
2023-02-12T08:20:46.818Z,95.16
2023-02-12T08:23:08.242Z,94.94
2023-02-12T08:25:29.730Z,94.43
2023-02-12T08:27:51.184Z,94.94
2023-02-12T08:30:15.344Z,95.14
2023-02-12T08:32:36.882Z,94.75
2023-02-12T08:34:58.324Z,94.49
2023-02-12T08:37:19.749Z,94.34
2023-02-12T08:39:41.274Z,94.41
2023-02-12T08:42:02.802Z,94.35
2023-02-12T08:44:24.656Z,94.59
2023-02-12T08:46:50.235Z,93.93
2023-02-12T08:49:14.359Z,93.75
2023-02-12T08:51:37.987Z,93.92
2023-02-12T08:54:01.806Z,93.60
2023-02-12T08:56:24.402Z,92.96
2023-02-12T08:58:46.139Z,93.50
2023-02-12T09:01:16.780Z,93.09
2023-02-12T09:03:38.637Z,92.90
2023-02-12T09:06:03.350Z,93.24
2023-02-12T09:08:24.854Z,93.45
2023-02-12T09:10:46.564Z,93.76
2023-02-12T09:13:09.229Z,93.17
2023-02-12T09:15:30.664Z,92.88
2023-02-12T09:17:52.138Z,92.57
2023-02-12T09:20:13.716Z,92.35
2023-02-12T09:22:38.137Z,91.90
2023-02-12T09:24:59.553Z,92.21
2023-02-12T09:27:21.118Z,92.02
2023-02-12T09:29:42.543Z,92.00
2023-02-12T09:32:06.624Z,91.47
2023-02-12T09:34:28.181Z,91.70
2023-02-12T09:36:49.677Z,91.61
2023-02-12T09:39:11.128Z,90.43
2023-02-12T09:41:35.318Z,90.62
2023-02-12T09:44:22.434Z,90.35
2023-02-12T09:46:56.652Z,90.59
2023-02-12T09:49:24.024Z,89.66
2023-02-12T09:51:51.554Z,91.12
2023-02-12T09:54:19.492Z,91.16
2023-02-12T09:56:44.588Z,91.38
2023-02-12T09:59:08.786Z,91.68
2023-02-12T10:01:30.427Z,91.91
2023-02-12T10:03:52.838Z,91.70
2023-02-12T10:06:20.956Z,91.22
2023-02-12T10:08:51.433Z,90.99
2023-02-12T10:11:25.715Z,90.34
2023-02-12T10:14:16.776Z,90.14
2023-02-12T10:16:52.380Z,89.78
2023-02-12T10:19:51.051Z,89.67
2023-02-12T10:22:28.614Z,89.53
2023-02-12T10:25:15.975Z,89.20
2023-02-12T10:27:46.829Z,89.20
2023-02-12T10:30:22.377Z,89.24
2023-02-12T10:32:45.945Z,88.70
2023-02-12T10:35:15.448Z,88.51
2023-02-12T10:37:55.479Z,88.26
2023-02-12T10:40:24.267Z,86.41
2023-02-12T10:42:49.136Z,86.26
2023-02-12T10:45:16.467Z,86.25
2023-02-12T10:47:37.911Z,85.32
2023-02-12T10:50:02.036Z,84.77
2023-02-12T10:52:39.096Z,84.34
2023-02-12T10:55:01.379Z,83.00
2023-02-12T10:57:31.382Z,82.27
2023-02-12T10:59:57.133Z,83.14
2023-02-12T11:02:25.577Z,83.81
2023-02-12T11:04:47.383Z,82.99
2023-02-12T11:07:09.878Z,83.09
2023-02-12T11:09:36.375Z,82.69
2023-02-12T11:11:58.342Z,82.07
2023-02-12T11:14:21.342Z,82.22
2023-02-12T11:16:55.759Z,83.22
2023-02-12T11:19:26.815Z,83.10
2023-02-12T11:21:49.310Z,82.83
2023-02-12T11:24:26.039Z,81.62
2023-02-12T11:26:47.599Z,81.93
2023-02-12T11:29:24.558Z,83.57
2023-02-12T11:32:01.451Z,83.37
2023-02-12T11:34:22.900Z,82.66
2023-02-12T11:36:50.858Z,83.31
2023-02-12T11:39:21.326Z,83.61
2023-02-12T11:41:43.489Z,84.77
2023-02-12T11:44:14.024Z,84.78
2023-02-12T11:46:36.089Z,83.47
2023-02-12T11:48:58.318Z,84.25
2023-02-12T11:51:25.020Z,85.08
2023-02-12T11:53:51.630Z,84.84
2023-02-12T11:56:14.843Z,85.04
2023-02-12T11:58:36.516Z,84.72
2023-02-12T12:01:25.252Z,86.15
2023-02-12T12:03:57.913Z,86.22
2023-02-12T12:06:40.488Z,86.87
2023-02-12T12:09:11.991Z,85.59
2023-02-12T12:11:33.426Z,86.17
2023-02-12T12:14:09.132Z,86.04
2023-02-12T12:17:04.456Z,85.88
2023-02-12T12:19:52.792Z,88.04
2023-02-12T12:22:31.211Z,86.94
2023-02-12T12:25:08.145Z,87.35
2023-02-12T12:28:03.211Z,87.51
2023-02-12T12:30:37.339Z,87.90
2023-02-12T12:33:03.553Z,86.83
2023-02-12T12:35:43.923Z,86.98
2023-02-12T12:38:20.114Z,86.02
2023-02-12T12:40:55.039Z,86.98
2023-02-12T12:44:01.095Z,87.80
2023-02-12T12:46:34.420Z,87.95
2023-02-12T12:49:02.159Z,88.23
2023-02-12T12:51:57.370Z,86.83
2023-02-12T12:54:21.732Z,87.01
2023-02-12T12:56:52.112Z,87.08
2023-02-12T12:59:38.036Z,87.95
2023-02-12T13:02:05.277Z,88.58
2023-02-12T13:04:52.819Z,89.36
2023-02-12T13:07:28.275Z,88.76
2023-02-12T13:10:25.232Z,90.99
2023-02-12T13:13:05.357Z,90.95
2023-02-12T13:15:33.674Z,90.11
2023-02-12T13:18:20.435Z,89.86
2023-02-12T13:20:49.720Z,91.03
2023-02-12T13:23:21.325Z,90.62
2023-02-12T13:25:50.252Z,90.89
2023-02-12T13:28:19.228Z,90.45
2023-02-12T13:30:46.857Z,89.84
2023-02-12T13:33:18.921Z,88.93
2023-02-12T13:35:45.657Z,89.83
2023-02-12T13:38:12.750Z,89.41
2023-02-12T13:40:35.678Z,90.62
2023-02-12T13:43:59.085Z,90.58
2023-02-12T13:46:39.046Z,90.17
2023-02-12T13:49:10.851Z,90.76
2023-02-12T13:51:39.229Z,89.99
2023-02-12T13:54:15.634Z,90.03
2023-02-12T13:56:47.020Z,89.65
2023-02-12T13:59:37.030Z,89.15
2023-02-12T14:02:03.291Z,88.64
2023-02-12T14:04:33.904Z,88.86
2023-02-12T14:07:09.893Z,89.44
2023-02-12T14:09:42.374Z,89.25
2023-02-12T14:12:11.482Z,89.96
2023-02-12T14:14:37.982Z,89.03
2023-02-12T14:17:28.323Z,88.59
2023-02-12T14:19:55.135Z,89.10
2023-02-12T14:22:28.729Z,88.87
2023-02-12T14:24:52.372Z,89.21
2023-02-12T14:27:52.982Z,90.69
2023-02-12T14:30:14.342Z,90.94
2023-02-12T14:32:53.435Z,89.80
2023-02-12T14:35:27.173Z,89.76
2023-02-12T14:37:48.705Z,89.76
2023-02-12T14:40:35.068Z,89.54
2023-02-12T14:42:56.855Z,88.89
2023-02-12T14:45:35.244Z,89.38
2023-02-12T14:47:56.763Z,88.72
2023-02-12T14:50:25.717Z,89.00
2023-02-12T14:52:58.617Z,89.25
2023-02-12T14:55:31.004Z,89.08
2023-02-12T14:58:01.321Z,88.98
2023-02-12T15:00:41.798Z,88.63
2023-02-12T15:03:20.078Z,88.20
2023-02-12T15:05:47.147Z,88.50
2023-02-12T15:08:19.511Z,88.37
2023-02-12T15:10:54.600Z,88.25
2023-02-12T15:13:23.087Z,87.93
2023-02-12T15:15:49.117Z,86.07
2023-02-12T15:18:41.810Z,87.62
2023-02-12T15:21:12.472Z,88.07
2023-02-12T15:23:39.814Z,87.35
2023-02-12T15:26:03.063Z,87.42
2023-02-12T15:28:33.484Z,87.78
2023-02-12T15:30:56.755Z,88.02
2023-02-12T15:33:31.004Z,89.53
2023-02-12T15:35:52.928Z,91.31
2023-02-12T15:38:24.900Z,90.36
2023-02-12T15:40:57.917Z,90.15
2023-02-12T15:43:19.503Z,89.96
2023-02-12T15:45:51.224Z,89.95
2023-02-12T15:48:16.817Z,90.36
2023-02-12T15:50:55.795Z,90.32
2023-02-12T15:53:17.722Z,90.48
2023-02-12T15:55:43.421Z,91.27
2023-02-12T15:58:04.965Z,91.23
2023-02-12T16:00:41.855Z,91.78
2023-02-12T16:03:03.512Z,92.61
2023-02-12T16:05:25.833Z,92.28
2023-02-12T16:07:47.815Z,91.58
2023-02-12T16:10:15.484Z,91.07
2023-02-12T16:12:39.738Z,90.85
2023-02-12T16:15:01.829Z,90.93
2023-02-12T16:17:35.200Z,90.96
2023-02-12T16:20:06.561Z,90.40
2023-02-12T16:22:36.157Z,90.25
2023-02-12T16:24:58.713Z,90.01
2023-02-12T16:27:24.189Z,89.93
2023-02-12T16:29:52.320Z,90.10
2023-02-12T16:32:29.027Z,90.32
2023-02-12T16:34:59.997Z,90.73
2023-02-12T16:37:37.615Z,91.47
2023-02-12T16:40:00.798Z,91.36
2023-02-12T16:42:27.233Z,92.75
2023-02-12T16:44:48.690Z,93.24
2023-02-12T16:47:20.915Z,93.94
2023-02-12T16:49:53.957Z,93.35
2023-02-12T16:52:27.152Z,92.67
2023-02-12T16:54:48.695Z,92.91
2023-02-12T16:57:12.329Z,93.02
2023-02-12T16:59:34.964Z,93.48
2023-02-12T17:02:06.947Z,93.98
2023-02-12T17:04:28.513Z,93.08
2023-02-12T17:06:49.940Z,93.02
2023-02-12T17:09:11.517Z,93.64
2023-02-12T17:11:33.015Z,93.63
2023-02-12T17:13:55.634Z,92.98
2023-02-12T17:16:29.798Z,92.37
2023-02-12T17:18:52.229Z,91.94
2023-02-12T17:21:29.507Z,91.70
2023-02-12T17:23:51.051Z,92.12
2023-02-12T17:26:12.561Z,92.20
2023-02-12T17:28:34.077Z,92.47
2023-02-12T17:30:56.364Z,91.87
2023-02-12T17:33:19.038Z,91.31
2023-02-12T17:35:40.773Z,91.39
2023-02-12T17:38:02.199Z,91.36
2023-02-12T17:40:23.755Z,91.30
2023-02-12T17:42:45.217Z,91.42
2023-02-12T17:45:07.312Z,91.26
2023-02-12T17:47:29.852Z,91.24
2023-02-12T17:49:51.322Z,90.87
2023-02-12T17:52:12.787Z,91.13
2023-02-12T17:54:34.249Z,90.73
2023-02-12T17:56:55.734Z,90.96
2023-02-12T17:59:17.172Z,91.21
2023-02-12T18:01:39.830Z,91.83
2023-02-12T18:04:01.350Z,91.63
2023-02-12T18:06:25.476Z,91.54
2023-02-12T18:08:46.983Z,91.69
2023-02-12T18:11:10.352Z,92.19
2023-02-12T18:13:32.144Z,92.22
2023-02-12T18:15:53.564Z,91.81
2023-02-12T18:18:16.717Z,91.81
2023-02-12T18:20:40.245Z,91.91
2023-02-12T18:23:03.288Z,91.79
2023-02-12T18:25:24.796Z,91.75
2023-02-12T18:27:46.251Z,91.77
2023-02-12T18:30:09.246Z,91.86
2023-02-12T18:32:30.970Z,91.63
2023-02-12T18:34:52.557Z,90.87
2023-02-12T18:37:14.017Z,91.14
2023-02-12T18:39:35.541Z,91.19
2023-02-12T18:41:57.006Z,91.21
2023-02-12T18:44:18.440Z,90.47
2023-02-12T18:46:40.010Z,90.10
2023-02-12T18:49:02.524Z,90.61
2023-02-12T18:51:26.989Z,91.25
2023-02-12T18:54:06.358Z,91.81
2023-02-12T18:56:30.309Z,91.81
2023-02-12T18:58:59.935Z,91.59
2023-02-12T19:01:21.437Z,91.32
2023-02-12T19:03:44.476Z,91.18
2023-02-12T19:06:06.290Z,91.25
2023-02-12T19:08:27.752Z,91.10
2023-02-12T19:10:49.506Z,90.91
2023-02-12T19:13:11.177Z,90.71
2023-02-12T19:15:32.611Z,89.53
2023-02-12T19:17:55.165Z,90.05
2023-02-12T19:20:16.936Z,90.23
2023-02-12T19:22:38.976Z,89.91
2023-02-12T19:25:00.467Z,90.42
2023-02-12T19:27:21.940Z,90.79
2023-02-12T19:29:43.788Z,92.19
2023-02-12T19:32:05.272Z,92.14
2023-02-12T19:34:27.256Z,91.86
2023-02-12T19:36:49.910Z,91.91
2023-02-12T19:39:15.441Z,92.63
2023-02-12T19:41:40.956Z,92.17
2023-02-12T19:44:02.547Z,91.99
2023-02-12T19:46:25.779Z,91.73
2023-02-12T19:48:47.973Z,91.73
2023-02-12T19:51:14.878Z,91.22
2023-02-12T19:53:36.329Z,91.31
2023-02-12T19:56:04.479Z,91.34
2023-02-12T19:58:25.951Z,91.77
2023-02-12T20:00:47.597Z,92.03
2023-02-12T20:03:09.052Z,91.81
2023-02-12T20:05:30.528Z,92.34
2023-02-12T20:07:52.051Z,91.31
2023-02-12T20:10:13.528Z,91.88
2023-02-12T20:12:40.065Z,91.39
2023-02-12T20:15:02.706Z,91.64
2023-02-12T20:17:24.196Z,91.95
2023-02-12T20:19:45.613Z,92.37
2023-02-12T20:22:07.037Z,92.71
2023-02-12T20:24:31.412Z,92.10
2023-02-12T20:26:53.733Z,92.29
2023-02-12T20:29:15.283Z,92.77
2023-02-12T20:31:37.958Z,92.06
2023-02-12T20:34:02.953Z,92.06
2023-02-12T20:36:25.257Z,92.08
2023-02-12T20:38:51.464Z,92.62
2023-02-12T20:41:12.924Z,92.27
2023-02-12T20:43:35.249Z,92.98
2023-02-12T20:46:03.370Z,92.62
2023-02-12T20:48:24.897Z,91.77
2023-02-12T20:50:46.505Z,91.69
2023-02-12T20:53:07.951Z,91.39
2023-02-12T20:55:29.372Z,92.01
2023-02-12T20:57:50.834Z,91.66
2023-02-12T21:00:13.024Z,92.04
2023-02-12T21:02:34.538Z,91.44
2023-02-12T21:04:56.191Z,90.79
2023-02-12T21:07:17.648Z,91.24
2023-02-12T21:09:39.146Z,91.58
2023-02-12T21:12:00.615Z,91.94
2023-02-12T21:14:23.897Z,91.38
2023-02-12T21:16:45.849Z,92.01
2023-02-12T21:19:08.764Z,91.43
2023-02-12T21:21:32.349Z,91.39
2023-02-12T21:23:56.896Z,91.54
2023-02-12T21:26:20.233Z,92.82
2023-02-12T21:28:41.928Z,92.39
2023-02-12T21:31:14.840Z,92.12
2023-02-12T21:33:37.522Z,92.44
2023-02-12T21:35:59.045Z,92.39
2023-02-12T21:38:20.514Z,93.50
2023-02-12T21:40:41.962Z,92.82
2023-02-12T21:43:03.455Z,92.73
2023-02-12T21:45:25.112Z,92.87
2023-02-12T21:47:46.622Z,92.49
2023-02-12T21:50:08.498Z,93.17
2023-02-12T21:52:29.937Z,93.05
2023-02-12T21:54:53.546Z,92.75
2023-02-12T21:57:19.788Z,92.71
2023-02-12T21:59:41.238Z,93.46
2023-02-12T22:02:02.899Z,94.94
2023-02-12T22:04:24.373Z,95.35
2023-02-12T22:06:47.885Z,94.68
2023-02-12T22:09:11.024Z,93.94
2023-02-12T22:11:32.476Z,93.56
2023-02-12T22:13:53.969Z,94.63
2023-02-12T22:16:16.871Z,94.53
2023-02-12T22:18:38.722Z,94.01
2023-02-12T22:21:01.318Z,94.25
2023-02-12T22:23:22.774Z,95.39
2023-02-12T22:25:44.243Z,97.00
2023-02-12T22:28:05.753Z,95.88
2023-02-12T22:30:27.218Z,95.31
2023-02-12T22:32:48.728Z,95.43
2023-02-12T22:35:10.350Z,95.17
2023-02-12T22:37:31.802Z,95.34
2023-02-12T22:39:53.247Z,96.91
2023-02-12T22:42:14.680Z,96.04
2023-02-12T22:44:36.583Z,95.08
2023-02-12T22:46:58.030Z,95.48
2023-02-12T22:49:19.485Z,95.70
2023-02-12T22:51:41.286Z,95.33
2023-02-12T22:54:03.133Z,95.35
2023-02-12T22:56:25.261Z,95.32
2023-02-12T22:58:47.204Z,94.96
2023-02-12T23:01:14.831Z,95.13
2023-02-12T23:03:38.001Z,95.51
2023-02-12T23:06:03.905Z,94.92
2023-02-12T23:08:25.362Z,95.57
2023-02-12T23:10:46.771Z,94.76
2023-02-12T23:13:09.384Z,94.50
2023-02-12T23:15:31.109Z,94.76
2023-02-12T23:17:52.529Z,95.09
2023-02-12T23:20:14.491Z,94.84
2023-02-12T23:22:35.933Z,94.21
2023-02-12T23:24:57.382Z,93.89
2023-02-12T23:27:18.957Z,95.03
2023-02-12T23:29:40.601Z,94.74
2023-02-12T23:32:02.135Z,94.71
2023-02-12T23:34:23.637Z,94.24
2023-02-12T23:36:45.095Z,94.52
2023-02-12T23:39:06.567Z,94.11
2023-02-12T23:41:27.995Z,94.18
2023-02-12T23:43:49.436Z,94.06
2023-02-12T23:46:11.133Z,93.91
2023-02-12T23:48:32.683Z,93.62
2023-02-12T23:50:54.257Z,92.97
2023-02-12T23:53:16.232Z,93.96
2023-02-12T23:55:38.710Z,93.64
2023-02-12T23:58:02.394Z,93.73
